Williston, North Dakota
Current Conditions -  °F | °C
As of 10:32 AM on Friday 19 Dec 2014 (Local Time) from KISN Reporting Station
Haze Haze  
Wind Chill: 21°   Ceiling: 200
Heat Index: 21°   Visibility: 6mi
Dew Point: 18°   Wind: 0mph
Humidity: 88%   Direction: NA
Pressure: 29.95"   Gusts: NA
Location:  48.15°N, 103.62°W
Report Text: KISN 191632Z AUTO 00000KT 6SM BR OVC002 M06/M08 A2995 RMK AO2 I1001 T10611078
Loading
Personal Weather Stations






























Interactive Weather Map New forecast layout! Learn more

10-Day Weather Forecast

Advertisements
Track Severe Weather on mobile